Etusivu
METAR-TAF:

METAR-TAF

Lentoasemat :

Ivalon lentoasema

Ivalo, Suomi

Leveyspiiri: 68-37N, Pituuspiiri: 027-25E, korkeus merenpinnasta: 147 m

Tämänhetkinen sää

Tämä raportti tehtiin 12 minuuttia sitten, kello 15.50 UTC
Tuuli 5 kn pohjoisesta, vaihdellen luoteen ja pohjoisen/koillisen välillä
Lämpötila 15°C
Kosteus 55%
Ilmanpaine 1000 hPa
Näkyvyys 10 km tai enemmän
ei pilviä alle 1500 m:ssä eikä cumulonimbus-pilviä

METAR: EFIV 211550Z AUTO 35005KT 310V030 CAVOK 15/06 Q1000

Aika: 19:02 (16:02 UTC)

Sääennuste

Tämä raportti tehtiin 7 tuntia ja 34 minuuttia sitten, kello 08.28 UTC
Ennuste voimassa 21. päivästä klo 08 UTC - 21. päivään klo 10 UTC
Tuuli 8 kn lounaasta
Näkyvyys 10 km tai enemmän
Pilvistä 500 ft:n korkeudessa
heikkoa sadetta
Ajoittain
21. päivästä klo 08 UTC - 21. päivään klo 10 UTC
Näkyvyys: 4500 m
Pilvistä 300 ft:n korkeudessa
sadetta

TAF: EFIV 210828Z 2108/2110 22008KT 9999 -RA OVC005 TEMPO 2108/2110 4500 RA OVC003

Säähavainnot ja -ennusteet yli 4000 lentoasemalta (METAR- ja TAF-raportit).

Käytössä olevat sääasemat on merkitty karttaan keltaisilla ja punaisilla pisteillä.

Aseta hiiri pisteen päälle nähdäksesi sääaseman nimen.

Klikkaa sitten nähdäksesi säähavainnot ja -ennusteet.

Kartan vaihtaminen: klikkaa mustalla rastilla varustettuja vihreitä pisteitä, niin voit zoomata sisään; viivalla varustettua vihreää pistettä, niin voit zoomata ulos tai vihreitä nuolia, niin pääset viereisille kartoille.


METAR-TAF: